sensor_id;sensor_type;location;lat;lon;timestamp;temperature;humidity
41928;DHT22;27616;51.420;6.788;2023-05-28T00:00:33;14.50;99.90
41928;DHT22;27616;51.420;6.788;2023-05-28T00:03:00;14.50;99.90
41928;DHT22;27616;51.420;6.788;2023-05-28T00:05:26;14.40;99.90
41928;DHT22;27616;51.420;6.788;2023-05-28T00:07:51;14.40;99.90
41928;DHT22;27616;51.420;6.788;2023-05-28T00:10:17;14.30;99.90
41928;DHT22;27616;51.420;6.788;2023-05-28T00:12:43;14.30;99.90
41928;DHT22;27616;51.420;6.788;2023-05-28T00:15:09;14.30;99.90
41928;DHT22;27616;51.420;6.788;2023-05-28T00:17:35;14.20;99.90
41928;DHT22;27616;51.420;6.788;2023-05-28T00:20:01;14.20;99.90
41928;DHT22;27616;51.420;6.788;2023-05-28T00:22:26;14.20;99.90
41928;DHT22;27616;51.420;6.788;2023-05-28T00:24:52;14.10;99.90
41928;DHT22;27616;51.420;6.788;2023-05-28T00:27:18;14.10;99.90
41928;DHT22;27616;51.420;6.788;2023-05-28T00:29:43;14.00;99.90
41928;DHT22;27616;51.420;6.788;2023-05-28T00:32:10;14.00;99.90
41928;DHT22;27616;51.420;6.788;2023-05-28T00:34:35;13.90;99.90
41928;DHT22;27616;51.420;6.788;2023-05-28T00:37:01;13.90;99.90
41928;DHT22;27616;51.420;6.788;2023-05-28T00:39:28;13.80;99.90
41928;DHT22;27616;51.420;6.788;2023-05-28T00:42:01;13.70;99.90
41928;DHT22;27616;51.420;6.788;2023-05-28T00:44:27;13.70;99.90
41928;DHT22;27616;51.420;6.788;2023-05-28T00:46:53;13.60;99.90
41928;DHT22;27616;51.420;6.788;2023-05-28T00:49:20;13.60;99.90
41928;DHT22;27616;51.420;6.788;2023-05-28T00:51:47;13.60;99.90
41928;DHT22;27616;51.420;6.788;2023-05-28T00:54:13;13.60;99.90
41928;DHT22;27616;51.420;6.788;2023-05-28T00:56:39;13.50;99.90
41928;DHT22;27616;51.420;6.788;2023-05-28T00:59:06;13.50;99.90
41928;DHT22;27616;51.420;6.788;2023-05-28T01:01:31;13.50;99.90
41928;DHT22;27616;51.420;6.788;2023-05-28T01:03:57;13.50;99.90
41928;DHT22;27616;51.420;6.788;2023-05-28T01:06:24;13.50;99.90
41928;DHT22;27616;51.420;6.788;2023-05-28T01:08:50;13.40;99.90
41928;DHT22;27616;51.420;6.788;2023-05-28T01:11:20;13.30;99.90
41928;DHT22;27616;51.420;6.788;2023-05-28T01:13:47;13.30;99.90
41928;DHT22;27616;51.420;6.788;2023-05-28T01:16:13;13.30;99.90
41928;DHT22;27616;51.420;6.788;2023-05-28T01:18:40;13.20;99.90
41928;DHT22;27616;51.420;6.788;2023-05-28T01:21:07;13.20;99.90
41928;DHT22;27616;51.420;6.788;2023-05-28T01:23:47;13.10;99.90
41928;DHT22;27616;51.420;6.788;2023-05-28T01:26:15;13.10;99.90
41928;DHT22;27616;51.420;6.788;2023-05-28T01:28:45;13.00;99.90
41928;DHT22;27616;51.420;6.788;2023-05-28T01:31:12;12.90;99.90
41928;DHT22;27616;51.420;6.788;2023-05-28T01:33:38;12.90;99.90
41928;DHT22;27616;51.420;6.788;2023-05-28T01:36:20;12.80;99.90
41928;DHT22;27616;51.420;6.788;2023-05-28T01:38:48;12.80;99.90
41928;DHT22;27616;51.420;6.788;2023-05-28T01:41:16;12.70;99.90
41928;DHT22;27616;51.420;6.788;2023-05-28T01:43:42;12.70;99.90
41928;DHT22;27616;51.420;6.788;2023-05-28T01:46:09;12.60;99.90
41928;DHT22;27616;51.420;6.788;2023-05-28T01:48:36;12.50;99.90
41928;DHT22;27616;51.420;6.788;2023-05-28T01:51:02;12.50;99.90
41928;DHT22;27616;51.420;6.788;2023-05-28T01:53:28;12.40;99.90
41928;DHT22;27616;51.420;6.788;2023-05-28T01:55:55;12.40;99.90
41928;DHT22;27616;51.420;6.788;2023-05-28T01:58:23;12.40;99.90
41928;DHT22;27616;51.420;6.788;2023-05-28T02:01:28;12.30;99.90
41928;DHT22;27616;51.420;6.788;2023-05-28T02:03:59;12.30;99.90
41928;DHT22;27616;51.420;6.788;2023-05-28T02:06:29;12.20;99.90
41928;DHT22;27616;51.420;6.788;2023-05-28T02:08:56;12.10;99.90
41928;DHT22;27616;51.420;6.788;2023-05-28T02:11:22;12.10;99.90
41928;DHT22;27616;51.420;6.788;2023-05-28T02:13:51;12.10;99.90
41928;DHT22;27616;51.420;6.788;2023-05-28T02:16:18;12.10;99.90
41928;DHT22;27616;51.420;6.788;2023-05-28T02:18:44;12.10;99.90
41928;DHT22;27616;51.420;6.788;2023-05-28T02:21:11;12.10;99.90
41928;DHT22;27616;51.420;6.788;2023-05-28T02:23:43;12.10;99.90
41928;DHT22;27616;51.420;6.788;2023-05-28T02:26:09;12.00;99.90
41928;DHT22;27616;51.420;6.788;2023-05-28T02:28:35;12.00;99.90
41928;DHT22;27616;51.420;6.788;2023-05-28T02:31:00;12.00;99.90
41928;DHT22;27616;51.420;6.788;2023-05-28T02:33:26;11.90;99.90
41928;DHT22;27616;51.420;6.788;2023-05-28T02:35:52;11.90;99.90
41928;DHT22;27616;51.420;6.788;2023-05-28T02:38:18;11.80;99.90
41928;DHT22;27616;51.420;6.788;2023-05-28T02:40:44;11.90;99.90
41928;DHT22;27616;51.420;6.788;2023-05-28T02:43:10;11.80;99.90
41928;DHT22;27616;51.420;6.788;2023-05-28T02:45:35;11.70;99.90
41928;DHT22;27616;51.420;6.788;2023-05-28T02:48:01;11.60;99.90
41928;DHT22;27616;51.420;6.788;2023-05-28T02:50:27;11.50;99.90
41928;DHT22;27616;51.420;6.788;2023-05-28T02:53:05;11.40;99.90
41928;DHT22;27616;51.420;6.788;2023-05-28T02:55:31;11.30;99.90
41928;DHT22;27616;51.420;6.788;2023-05-28T02:57:56;11.20;99.90
41928;DHT22;27616;51.420;6.788;2023-05-28T03:00:23;11.10;99.90
41928;DHT22;27616;51.420;6.788;2023-05-28T03:02:49;11.00;99.90
41928;DHT22;27616;51.420;6.788;2023-05-28T03:05:16;11.00;99.90
41928;DHT22;27616;51.420;6.788;2023-05-28T03:07:42;11.00;99.90
41928;DHT22;27616;51.420;6.788;2023-05-28T03:10:08;11.00;99.90
41928;DHT22;27616;51.420;6.788;2023-05-28T03:12:34;11.00;99.90
41928;DHT22;27616;51.420;6.788;2023-05-28T03:15:02;11.10;99.90
41928;DHT22;27616;51.420;6.788;2023-05-28T03:17:27;11.20;99.90
41928;DHT22;27616;51.420;6.788;2023-05-28T03:19:53;11.20;99.90
41928;DHT22;27616;51.420;6.788;2023-05-28T03:22:20;11.20;99.90
41928;DHT22;27616;51.420;6.788;2023-05-28T03:24:46;11.30;99.90
41928;DHT22;27616;51.420;6.788;2023-05-28T03:27:13;11.30;99.90
41928;DHT22;27616;51.420;6.788;2023-05-28T03:29:39;11.30;99.90
41928;DHT22;27616;51.420;6.788;2023-05-28T03:32:24;11.30;99.90
41928;DHT22;27616;51.420;6.788;2023-05-28T03:34:50;11.30;99.90
41928;DHT22;27616;51.420;6.788;2023-05-28T03:37:21;11.20;99.90
41928;DHT22;27616;51.420;6.788;2023-05-28T03:39:47;11.30;99.90
41928;DHT22;27616;51.420;6.788;2023-05-28T03:42:12;11.30;99.90
41928;DHT22;27616;51.420;6.788;2023-05-28T03:44:39;11.30;99.90
41928;DHT22;27616;51.420;6.788;2023-05-28T03:47:06;11.20;99.90
41928;DHT22;27616;51.420;6.788;2023-05-28T03:49:32;11.30;99.90
41928;DHT22;27616;51.420;6.788;2023-05-28T03:51:58;11.40;99.90
41928;DHT22;27616;51.420;6.788;2023-05-28T03:54:26;11.40;99.90
41928;DHT22;27616;51.420;6.788;2023-05-28T03:56:52;11.40;99.90
41928;DHT22;27616;51.420;6.788;2023-05-28T03:59:20;11.50;99.90
41928;DHT22;27616;51.420;6.788;2023-05-28T04:01:46;11.50;99.90
41928;DHT22;27616;51.420;6.788;2023-05-28T04:04:12;11.60;99.90
41928;DHT22;27616;51.420;6.788;2023-05-28T04:06:38;11.60;99.90
41928;DHT22;27616;51.420;6.788;2023-05-28T04:09:05;11.60;99.90
41928;DHT22;27616;51.420;6.788;2023-05-28T04:11:32;11.70;99.90
41928;DHT22;27616;51.420;6.788;2023-05-28T04:14:00;11.70;99.90
41928;DHT22;27616;51.420;6.788;2023-05-28T04:16:27;11.70;99.90
41928;DHT22;27616;51.420;6.788;2023-05-28T04:18:53;11.70;99.90
41928;DHT22;27616;51.420;6.788;2023-05-28T04:21:20;11.70;99.90
41928;DHT22;27616;51.420;6.788;2023-05-28T04:23:46;11.70;99.90
41928;DHT22;27616;51.420;6.788;2023-05-28T04:26:12;11.70;99.90
41928;DHT22;27616;51.420;6.788;2023-05-28T04:28:38;11.80;99.90
41928;DHT22;27616;51.420;6.788;2023-05-28T04:31:04;11.80;99.90
41928;DHT22;27616;51.420;6.788;2023-05-28T04:33:31;11.80;99.90
41928;DHT22;27616;51.420;6.788;2023-05-28T04:36:00;11.90;99.90
41928;DHT22;27616;51.420;6.788;2023-05-28T04:38:27;11.90;99.90
41928;DHT22;27616;51.420;6.788;2023-05-28T04:40:55;12.00;99.90
41928;DHT22;27616;51.420;6.788;2023-05-28T04:43:21;12.00;99.90
41928;DHT22;27616;51.420;6.788;2023-05-28T04:45:47;12.10;99.90
41928;DHT22;27616;51.420;6.788;2023-05-28T04:48:15;12.20;99.90
41928;DHT22;27616;51.420;6.788;2023-05-28T04:50:42;12.20;99.90
41928;DHT22;27616;51.420;6.788;2023-05-28T04:53:08;12.30;99.90
41928;DHT22;27616;51.420;6.788;2023-05-28T04:55:34;12.30;99.90
41928;DHT22;27616;51.420;6.788;2023-05-28T04:58:00;12.40;99.90
41928;DHT22;27616;51.420;6.788;2023-05-28T05:00:27;12.40;99.90
41928;DHT22;27616;51.420;6.788;2023-05-28T05:02:55;12.50;99.90
41928;DHT22;27616;51.420;6.788;2023-05-28T05:05:22;12.50;99.90
41928;DHT22;27616;51.420;6.788;2023-05-28T05:07:48;12.60;99.90
41928;DHT22;27616;51.420;6.788;2023-05-28T05:10:14;12.60;99.90
41928;DHT22;27616;51.420;6.788;2023-05-28T05:12:40;12.70;99.90
41928;DHT22;27616;51.420;6.788;2023-05-28T05:15:07;12.70;99.90
41928;DHT22;27616;51.420;6.788;2023-05-28T05:17:33;12.70;99.90
41928;DHT22;27616;51.420;6.788;2023-05-28T05:20:01;12.80;99.90
41928;DHT22;27616;51.420;6.788;2023-05-28T05:22:30;12.90;99.90
41928;DHT22;27616;51.420;6.788;2023-05-28T05:24:56;13.00;99.90
41928;DHT22;27616;51.420;6.788;2023-05-28T05:27:22;13.00;99.90
41928;DHT22;27616;51.420;6.788;2023-05-28T05:29:48;13.10;99.90
41928;DHT22;27616;51.420;6.788;2023-05-28T05:32:13;13.20;99.90
41928;DHT22;27616;51.420;6.788;2023-05-28T05:34:40;13.30;99.90
41928;DHT22;27616;51.420;6.788;2023-05-28T05:37:29;13.30;99.90
41928;DHT22;27616;51.420;6.788;2023-05-28T05:40:13;13.40;99.90
41928;DHT22;27616;51.420;6.788;2023-05-28T05:43:01;13.50;99.90
41928;DHT22;27616;51.420;6.788;2023-05-28T05:45:28;13.60;99.90
41928;DHT22;27616;51.420;6.788;2023-05-28T05:47:55;13.70;99.90
41928;DHT22;27616;51.420;6.788;2023-05-28T05:50:21;13.80;99.90
41928;DHT22;27616;51.420;6.788;2023-05-28T05:52:48;13.90;99.90
41928;DHT22;27616;51.420;6.788;2023-05-28T05:55:13;14.00;99.90
41928;DHT22;27616;51.420;6.788;2023-05-28T05:57:39;14.00;99.90
41928;DHT22;27616;51.420;6.788;2023-05-28T06:00:07;14.10;99.90
41928;DHT22;27616;51.420;6.788;2023-05-28T06:02:47;14.20;99.90
41928;DHT22;27616;51.420;6.788;2023-05-28T06:05:45;14.30;99.90
41928;DHT22;27616;51.420;6.788;2023-05-28T06:08:29;14.50;99.90
41928;DHT22;27616;51.420;6.788;2023-05-28T06:11:01;14.60;99.90
41928;DHT22;27616;51.420;6.788;2023-05-28T06:13:26;14.70;99.90
41928;DHT22;27616;51.420;6.788;2023-05-28T06:15:52;14.70;99.90
41928;DHT22;27616;51.420;6.788;2023-05-28T06:18:18;14.80;99.90
41928;DHT22;27616;51.420;6.788;2023-05-28T06:20:44;15.00;99.90
41928;DHT22;27616;51.420;6.788;2023-05-28T06:23:11;15.10;99.90
41928;DHT22;27616;51.420;6.788;2023-05-28T06:25:37;15.20;99.90
41928;DHT22;27616;51.420;6.788;2023-05-28T06:28:05;15.30;99.90
41928;DHT22;27616;51.420;6.788;2023-05-28T06:30:31;15.40;99.90
41928;DHT22;27616;51.420;6.788;2023-05-28T06:32:58;15.60;99.90
41928;DHT22;27616;51.420;6.788;2023-05-28T06:35:23;15.70;99.90
41928;DHT22;27616;51.420;6.788;2023-05-28T06:37:50;15.80;99.90
41928;DHT22;27616;51.420;6.788;2023-05-28T06:40:16;15.90;99.90
41928;DHT22;27616;51.420;6.788;2023-05-28T06:42:42;16.00;99.90
41928;DHT22;27616;51.420;6.788;2023-05-28T06:45:31;16.00;99.90
41928;DHT22;27616;51.420;6.788;2023-05-28T06:48:00;16.20;99.90
41928;DHT22;27616;51.420;6.788;2023-05-28T06:50:26;16.30;99.90
41928;DHT22;27616;51.420;6.788;2023-05-28T06:52:53;16.40;99.90
41928;DHT22;27616;51.420;6.788;2023-05-28T06:55:19;16.60;99.90
41928;DHT22;27616;51.420;6.788;2023-05-28T06:58:05;16.70;99.90
41928;DHT22;27616;51.420;6.788;2023-05-28T07:01:00;16.80;99.90
41928;DHT22;27616;51.420;6.788;2023-05-28T07:03:51;17.00;99.90
41928;DHT22;27616;51.420;6.788;2023-05-28T07:06:38;17.10;99.90
41928;DHT22;27616;51.420;6.788;2023-05-28T07:09:06;17.30;99.90
41928;DHT22;27616;51.420;6.788;2023-05-28T07:11:32;17.40;99.90
41928;DHT22;27616;51.420;6.788;2023-05-28T07:13:58;17.60;99.90
41928;DHT22;27616;51.420;6.788;2023-05-28T07:16:25;17.70;99.90
41928;DHT22;27616;51.420;6.788;2023-05-28T07:18:51;17.90;99.90
41928;DHT22;27616;51.420;6.788;2023-05-28T07:21:17;18.10;99.90
41928;DHT22;27616;51.420;6.788;2023-05-28T07:23:45;18.30;99.90
41928;DHT22;27616;51.420;6.788;2023-05-28T07:26:11;18.50;99.90
41928;DHT22;27616;51.420;6.788;2023-05-28T07:28:37;18.60;99.90
41928;DHT22;27616;51.420;6.788;2023-05-28T07:31:03;18.70;99.90
41928;DHT22;27616;51.420;6.788;2023-05-28T07:33:29;18.80;99.90
41928;DHT22;27616;51.420;6.788;2023-05-28T07:35:56;18.90;99.90
41928;DHT22;27616;51.420;6.788;2023-05-28T07:38:21;18.90;99.90
41928;DHT22;27616;51.420;6.788;2023-05-28T07:40:51;19.10;99.90
41928;DHT22;27616;51.420;6.788;2023-05-28T07:43:34;19.10;99.90
41928;DHT22;27616;51.420;6.788;2023-05-28T07:46:04;19.10;99.90
41928;DHT22;27616;51.420;6.788;2023-05-28T07:48:43;19.20;99.60
41928;DHT22;27616;51.420;6.788;2023-05-28T07:51:18;19.20;99.90
41928;DHT22;27616;51.420;6.788;2023-05-28T07:53:48;19.20;99.90
41928;DHT22;27616;51.420;6.788;2023-05-28T07:56:19;19.40;99.90
41928;DHT22;27616;51.420;6.788;2023-05-28T07:58:46;19.50;99.80
41928;DHT22;27616;51.420;6.788;2023-05-28T08:01:15;19.50;99.80
41928;DHT22;27616;51.420;6.788;2023-05-28T08:03:41;19.50;99.30
41928;DHT22;27616;51.420;6.788;2023-05-28T08:06:07;19.60;98.70
41928;DHT22;27616;51.420;6.788;2023-05-28T08:08:35;19.70;99.90
41928;DHT22;27616;51.420;6.788;2023-05-28T08:11:02;19.70;99.40
41928;DHT22;27616;51.420;6.788;2023-05-28T08:13:27;19.80;98.80
41928;DHT22;27616;51.420;6.788;2023-05-28T08:15:54;19.80;98.20
41928;DHT22;27616;51.420;6.788;2023-05-28T08:18:22;19.90;98.50
41928;DHT22;27616;51.420;6.788;2023-05-28T08:20:48;20.00;98.50
41928;DHT22;27616;51.420;6.788;2023-05-28T08:23:22;20.00;98.10
41928;DHT22;27616;51.420;6.788;2023-05-28T08:25:49;20.10;98.50
41928;DHT22;27616;51.420;6.788;2023-05-28T08:28:23;20.20;98.70
41928;DHT22;27616;51.420;6.788;2023-05-28T08:30:49;20.30;96.80
41928;DHT22;27616;51.420;6.788;2023-05-28T08:33:50;20.30;97.20
41928;DHT22;27616;51.420;6.788;2023-05-28T08:36:18;20.50;97.30
41928;DHT22;27616;51.420;6.788;2023-05-28T08:38:45;20.60;96.90
41928;DHT22;27616;51.420;6.788;2023-05-28T08:41:13;20.60;96.60
41928;DHT22;27616;51.420;6.788;2023-05-28T08:43:38;20.60;95.70
41928;DHT22;27616;51.420;6.788;2023-05-28T08:46:04;20.70;97.70
41928;DHT22;27616;51.420;6.788;2023-05-28T08:48:40;20.80;96.70
41928;DHT22;27616;51.420;6.788;2023-05-28T08:51:06;20.80;96.70
41928;DHT22;27616;51.420;6.788;2023-05-28T08:53:46;20.90;97.00
41928;DHT22;27616;51.420;6.788;2023-05-28T08:56:17;21.00;97.10
41928;DHT22;27616;51.420;6.788;2023-05-28T08:58:44;21.10;94.60
41928;DHT22;27616;51.420;6.788;2023-05-28T09:01:10;21.20;96.70
41928;DHT22;27616;51.420;6.788;2023-05-28T09:03:55;21.30;97.50
41928;DHT22;27616;51.420;6.788;2023-05-28T09:06:30;21.40;94.40
41928;DHT22;27616;51.420;6.788;2023-05-28T09:08:57;21.50;95.30
41928;DHT22;27616;51.420;6.788;2023-05-28T09:12:09;21.60;94.80
41928;DHT22;27616;51.420;6.788;2023-05-28T09:14:42;21.70;93.10
41928;DHT22;27616;51.420;6.788;2023-05-28T09:17:09;21.80;93.10
41928;DHT22;27616;51.420;6.788;2023-05-28T09:19:36;21.90;92.80
41928;DHT22;27616;51.420;6.788;2023-05-28T09:22:02;22.00;92.80
41928;DHT22;27616;51.420;6.788;2023-05-28T09:24:36;21.90;93.20
41928;DHT22;27616;51.420;6.788;2023-05-28T09:27:27;22.00;94.50
41928;DHT22;27616;51.420;6.788;2023-05-28T09:29:54;22.00;91.60
41928;DHT22;27616;51.420;6.788;2023-05-28T09:32:19;22.10;92.80
41928;DHT22;27616;51.420;6.788;2023-05-28T09:34:48;22.00;91.90
41928;DHT22;27616;51.420;6.788;2023-05-28T09:37:15;22.10;92.90
41928;DHT22;27616;51.420;6.788;2023-05-28T09:39:42;22.20;92.00
41928;DHT22;27616;51.420;6.788;2023-05-28T09:42:08;22.30;91.30
41928;DHT22;27616;51.420;6.788;2023-05-28T09:44:39;22.30;90.70
41928;DHT22;27616;51.420;6.788;2023-05-28T09:47:13;22.30;91.40
41928;DHT22;27616;51.420;6.788;2023-05-28T09:49:42;22.40;90.70
41928;DHT22;27616;51.420;6.788;2023-05-28T09:52:09;22.40;90.50
41928;DHT22;27616;51.420;6.788;2023-05-28T09:54:39;22.30;92.40
41928;DHT22;27616;51.420;6.788;2023-05-28T09:57:07;22.40;90.60
41928;DHT22;27616;51.420;6.788;2023-05-28T09:59:38;22.50;90.30
41928;DHT22;27616;51.420;6.788;2023-05-28T10:02:38;22.50;90.00
41928;DHT22;27616;51.420;6.788;2023-05-28T10:05:09;22.50;88.50
41928;DHT22;27616;51.420;6.788;2023-05-28T10:07:37;22.50;91.40
41928;DHT22;27616;51.420;6.788;2023-05-28T10:10:06;22.60;90.00
41928;DHT22;27616;51.420;6.788;2023-05-28T10:12:33;22.70;88.20
41928;DHT22;27616;51.420;6.788;2023-05-28T10:14:59;22.80;88.50
41928;DHT22;27616;51.420;6.788;2023-05-28T10:17:25;22.80;86.60
41928;DHT22;27616;51.420;6.788;2023-05-28T10:19:51;22.80;86.80
41928;DHT22;27616;51.420;6.788;2023-05-28T10:22:18;22.90;87.90
41928;DHT22;27616;51.420;6.788;2023-05-28T10:24:44;22.90;89.30
41928;DHT22;27616;51.420;6.788;2023-05-28T10:27:14;22.80;88.50
41928;DHT22;27616;51.420;6.788;2023-05-28T10:29:45;23.00;83.60
41928;DHT22;27616;51.420;6.788;2023-05-28T10:32:17;23.00;86.30
41928;DHT22;27616;51.420;6.788;2023-05-28T10:34:43;23.10;85.50
41928;DHT22;27616;51.420;6.788;2023-05-28T10:37:10;23.20;84.00
41928;DHT22;27616;51.420;6.788;2023-05-28T10:39:45;23.30;83.60
41928;DHT22;27616;51.420;6.788;2023-05-28T10:42:18;23.40;84.20
41928;DHT22;27616;51.420;6.788;2023-05-28T10:45:06;23.30;79.00
41928;DHT22;27616;51.420;6.788;2023-05-28T10:47:39;23.20;82.60
41928;DHT22;27616;51.420;6.788;2023-05-28T10:52:35;23.20;83.70
41928;DHT22;27616;51.420;6.788;2023-05-28T10:55:07;23.20;84.80
41928;DHT22;27616;51.420;6.788;2023-05-28T10:57:53;23.30;83.00
41928;DHT22;27616;51.420;6.788;2023-05-28T11:00:30;23.40;81.30
41928;DHT22;27616;51.420;6.788;2023-05-28T11:02:56;23.40;79.30
41928;DHT22;27616;51.420;6.788;2023-05-28T11:05:25;23.40;78.50
41928;DHT22;27616;51.420;6.788;2023-05-28T11:07:51;23.40;79.80
41928;DHT22;27616;51.420;6.788;2023-05-28T11:10:18;23.50;82.00
41928;DHT22;27616;51.420;6.788;2023-05-28T11:12:44;23.70;82.10
41928;DHT22;27616;51.420;6.788;2023-05-28T11:15:13;23.70;77.60
41928;DHT22;27616;51.420;6.788;2023-05-28T11:17:41;23.70;78.90
41928;DHT22;27616;51.420;6.788;2023-05-28T11:20:26;23.70;77.50
41928;DHT22;27616;51.420;6.788;2023-05-28T11:22:54;23.60;78.40
41928;DHT22;27616;51.420;6.788;2023-05-28T11:25:20;23.60;78.70
41928;DHT22;27616;51.420;6.788;2023-05-28T11:27:48;23.60;77.10
41928;DHT22;27616;51.420;6.788;2023-05-28T11:30:17;23.60;76.40
41928;DHT22;27616;51.420;6.788;2023-05-28T11:32:44;23.60;78.20
41928;DHT22;27616;51.420;6.788;2023-05-28T11:35:11;23.40;76.80
41928;DHT22;27616;51.420;6.788;2023-05-28T11:37:39;23.40;77.20
41928;DHT22;27616;51.420;6.788;2023-05-28T11:40:06;23.40;78.30
41928;DHT22;27616;51.420;6.788;2023-05-28T11:42:39;23.40;78.10
41928;DHT22;27616;51.420;6.788;2023-05-28T11:45:05;23.50;77.70
41928;DHT22;27616;51.420;6.788;2023-05-28T11:47:33;23.40;77.90
41928;DHT22;27616;51.420;6.788;2023-05-28T11:49:59;23.40;77.50
41928;DHT22;27616;51.420;6.788;2023-05-28T11:52:30;23.40;78.00
41928;DHT22;27616;51.420;6.788;2023-05-28T11:54:57;23.40;75.80
41928;DHT22;27616;51.420;6.788;2023-05-28T11:57:27;23.40;77.00
41928;DHT22;27616;51.420;6.788;2023-05-28T12:02:45;23.60;77.80
41928;DHT22;27616;51.420;6.788;2023-05-28T12:05:11;23.80;78.60
41928;DHT22;27616;51.420;6.788;2023-05-28T12:07:37;23.90;77.60
41928;DHT22;27616;51.420;6.788;2023-05-28T12:10:10;24.00;75.80
41928;DHT22;27616;51.420;6.788;2023-05-28T12:12:46;23.90;78.50
41928;DHT22;27616;51.420;6.788;2023-05-28T12:15:12;24.00;78.00
41928;DHT22;27616;51.420;6.788;2023-05-28T12:17:42;24.10;75.60
41928;DHT22;27616;51.420;6.788;2023-05-28T12:22:39;24.00;75.70
41928;DHT22;27616;51.420;6.788;2023-05-28T12:25:06;24.00;75.30
41928;DHT22;27616;51.420;6.788;2023-05-28T12:27:32;24.00;74.10
41928;DHT22;27616;51.420;6.788;2023-05-28T12:29:58;23.90;73.60
41928;DHT22;27616;51.420;6.788;2023-05-28T12:32:24;23.90;74.40
41928;DHT22;27616;51.420;6.788;2023-05-28T12:34:50;23.90;74.30
41928;DHT22;27616;51.420;6.788;2023-05-28T12:37:18;24.00;75.00
41928;DHT22;27616;51.420;6.788;2023-05-28T12:39:44;24.00;74.20
41928;DHT22;27616;51.420;6.788;2023-05-28T12:42:09;24.10;76.40
41928;DHT22;27616;51.420;6.788;2023-05-28T12:44:35;24.00;75.80
41928;DHT22;27616;51.420;6.788;2023-05-28T12:47:01;24.00;75.40
41928;DHT22;27616;51.420;6.788;2023-05-28T12:49:27;24.10;77.40
41928;DHT22;27616;51.420;6.788;2023-05-28T12:51:53;24.20;76.20
41928;DHT22;27616;51.420;6.788;2023-05-28T12:54:18;24.30;74.10
41928;DHT22;27616;51.420;6.788;2023-05-28T12:56:45;24.30;75.10
41928;DHT22;27616;51.420;6.788;2023-05-28T12:59:20;24.30;74.80
41928;DHT22;27616;51.420;6.788;2023-05-28T13:01:46;24.30;74.10
41928;DHT22;27616;51.420;6.788;2023-05-28T13:04:12;24.30;75.40
41928;DHT22;27616;51.420;6.788;2023-05-28T13:06:38;24.40;76.70
41928;DHT22;27616;51.420;6.788;2023-05-28T13:09:03;24.40;75.70
41928;DHT22;27616;51.420;6.788;2023-05-28T13:11:29;24.30;74.90
41928;DHT22;27616;51.420;6.788;2023-05-28T13:13:55;24.30;75.60
41928;DHT22;27616;51.420;6.788;2023-05-28T13:16:21;24.30;75.80
41928;DHT22;27616;51.420;6.788;2023-05-28T13:18:46;24.30;76.40
41928;DHT22;27616;51.420;6.788;2023-05-28T13:21:13;24.30;76.10
41928;DHT22;27616;51.420;6.788;2023-05-28T13:23:38;24.30;76.20
41928;DHT22;27616;51.420;6.788;2023-05-28T13:26:04;24.40;75.00
41928;DHT22;27616;51.420;6.788;2023-05-28T13:28:30;24.30;76.20
41928;DHT22;27616;51.420;6.788;2023-05-28T13:30:56;24.30;78.50
41928;DHT22;27616;51.420;6.788;2023-05-28T13:33:22;24.20;77.50
41928;DHT22;27616;51.420;6.788;2023-05-28T13:35:48;24.10;75.30
41928;DHT22;27616;51.420;6.788;2023-05-28T13:38:13;24.20;77.00
41928;DHT22;27616;51.420;6.788;2023-05-28T13:40:39;24.20;77.50
41928;DHT22;27616;51.420;6.788;2023-05-28T13:43:05;24.20;76.90
41928;DHT22;27616;51.420;6.788;2023-05-28T13:45:33;24.30;78.70
41928;DHT22;27616;51.420;6.788;2023-05-28T13:47:59;24.30;76.10
41928;DHT22;27616;51.420;6.788;2023-05-28T13:50:26;24.40;74.20
41928;DHT22;27616;51.420;6.788;2023-05-28T13:52:51;24.40;74.90
41928;DHT22;27616;51.420;6.788;2023-05-28T13:55:17;24.40;73.60
41928;DHT22;27616;51.420;6.788;2023-05-28T13:57:43;24.50;74.80
41928;DHT22;27616;51.420;6.788;2023-05-28T14:00:09;24.50;75.20
41928;DHT22;27616;51.420;6.788;2023-05-28T14:02:36;24.60;73.70
41928;DHT22;27616;51.420;6.788;2023-05-28T14:05:02;24.60;72.90
41928;DHT22;27616;51.420;6.788;2023-05-28T14:07:27;24.60;73.50
41928;DHT22;27616;51.420;6.788;2023-05-28T14:09:53;24.70;73.80
41928;DHT22;27616;51.420;6.788;2023-05-28T14:12:19;24.60;73.30
41928;DHT22;27616;51.420;6.788;2023-05-28T14:14:44;24.50;73.80
41928;DHT22;27616;51.420;6.788;2023-05-28T14:17:10;24.60;73.30
41928;DHT22;27616;51.420;6.788;2023-05-28T14:19:36;24.60;73.50
41928;DHT22;27616;51.420;6.788;2023-05-28T14:22:02;24.70;74.30
41928;DHT22;27616;51.420;6.788;2023-05-28T14:24:28;24.70;75.10
41928;DHT22;27616;51.420;6.788;2023-05-28T14:26:53;24.50;76.70
41928;DHT22;27616;51.420;6.788;2023-05-28T14:29:19;24.60;75.10
41928;DHT22;27616;51.420;6.788;2023-05-28T14:31:45;24.60;74.50
41928;DHT22;27616;51.420;6.788;2023-05-28T14:34:10;24.60;74.70
41928;DHT22;27616;51.420;6.788;2023-05-28T14:36:36;24.70;76.20
41928;DHT22;27616;51.420;6.788;2023-05-28T14:39:03;24.80;75.40
41928;DHT22;27616;51.420;6.788;2023-05-28T14:41:29;24.80;75.10
41928;DHT22;27616;51.420;6.788;2023-05-28T14:43:54;24.70;76.20
41928;DHT22;27616;51.420;6.788;2023-05-28T14:46:20;24.80;77.30
41928;DHT22;27616;51.420;6.788;2023-05-28T14:48:47;24.80;75.20
41928;DHT22;27616;51.420;6.788;2023-05-28T14:51:13;25.00;74.70
41928;DHT22;27616;51.420;6.788;2023-05-28T14:53:39;24.90;74.50
41928;DHT22;27616;51.420;6.788;2023-05-28T14:56:05;24.90;74.10
41928;DHT22;27616;51.420;6.788;2023-05-28T14:58:31;24.80;75.60
41928;DHT22;27616;51.420;6.788;2023-05-28T15:00:56;24.80;75.40
41928;DHT22;27616;51.420;6.788;2023-05-28T15:03:22;24.90;74.80
41928;DHT22;27616;51.420;6.788;2023-05-28T15:05:48;25.00;72.90
41928;DHT22;27616;51.420;6.788;2023-05-28T15:08:14;25.00;73.00
41928;DHT22;27616;51.420;6.788;2023-05-28T15:10:41;24.90;74.20
41928;DHT22;27616;51.420;6.788;2023-05-28T15:13:08;24.80;75.50
41928;DHT22;27616;51.420;6.788;2023-05-28T15:15:34;24.70;75.40
41928;DHT22;27616;51.420;6.788;2023-05-28T15:18:00;24.70;75.00
41928;DHT22;27616;51.420;6.788;2023-05-28T15:20:26;24.70;73.80
41928;DHT22;27616;51.420;6.788;2023-05-28T15:22:52;24.60;73.10
41928;DHT22;27616;51.420;6.788;2023-05-28T15:25:18;24.60;74.00
41928;DHT22;27616;51.420;6.788;2023-05-28T15:27:46;24.60;73.20
41928;DHT22;27616;51.420;6.788;2023-05-28T15:30:12;24.50;73.40
41928;DHT22;27616;51.420;6.788;2023-05-28T15:32:38;24.50;74.00
41928;DHT22;27616;51.420;6.788;2023-05-28T15:35:05;24.50;73.90
41928;DHT22;27616;51.420;6.788;2023-05-28T15:37:31;24.50;74.60
41928;DHT22;27616;51.420;6.788;2023-05-28T15:39:57;24.50;74.70
41928;DHT22;27616;51.420;6.788;2023-05-28T15:42:25;24.40;74.50
41928;DHT22;27616;51.420;6.788;2023-05-28T15:44:51;24.40;74.90